Time;durP1;ratioP1;P1;durP2;ratioP2;P2;SDS_P1;SDS_P2;PMS_P1;PMS_P2;Temp;Humidity;BMP_temperature;BMP_pressure;BME280_temperature;BME280_humidity;BME280_pressure;Samples;Min_cycle;Max_cycle;Signal;HPM_P1;HPM_P2
2022/11/06 00:01:20;;;;;;;16.10;4.63;;;;;;;10.07;85.02;99425.00;5029992;28;20080;-43
2022/11/06 00:03:47;;;;;;;13.75;3.20;;;;;;;10.05;85.41;99416.28;5031450;28;20057;-42
2022/11/06 00:09:07;;;;;;;22.85;5.10;;;;;;;10.01;85.85;99424.53;5027881;28;20132;-41
2022/11/06 00:11:34;;;;;;;24.42;4.50;;;;;;;9.99;85.97;99404.75;5036498;28;20080;-41
2022/11/06 00:14:01;;;;;;;17.05;3.35;;;;;;;9.94;86.02;99407.84;5032182;28;20196;-40
2022/11/06 00:16:28;;;;;;;16.60;4.55;;;;;;;9.95;86.17;99409.44;5029520;28;20068;-47
2022/11/06 00:18:55;;;;;;;16.65;5.95;;;;;;;9.93;86.32;99409.00;5030976;28;20430;-42
2022/11/06 00:21:25;;;;;;;16.75;4.28;;;;;;;9.90;86.50;99401.44;5030229;28;20064;-42
2022/11/06 00:23:53;;;;;;;18.45;3.70;;;;;;;9.88;87.08;99398.28;5030848;28;20495;-42
2022/11/06 00:26:25;;;;;;;22.23;4.72;;;;;;;9.87;87.00;99385.63;5026967;28;20057;-42
2022/11/06 00:28:52;;;;;;;18.92;6.30;;;;;;;9.85;87.34;99393.47;5037056;28;20080;-42
2022/11/06 00:31:22;;;;;;;13.70;3.65;;;;;;;9.82;87.38;99394.25;5030664;28;20492;-42
2022/11/06 00:33:49;;;;;;;44.40;4.60;;;;;;;9.80;87.80;99386.31;5013019;28;20097;-42
2022/11/06 00:36:19;;;;;;;19.60;3.28;;;;;;;9.81;87.97;99398.19;5029013;28;20475;-42
2022/11/06 00:38:46;;;;;;;10.40;3.03;;;;;;;9.82;88.35;99383.19;5027876;28;20044;-49
2022/11/06 00:41:14;;;;;;;14.68;3.75;;;;;;;9.87;88.53;99388.41;5030308;28;20436;-42
2022/11/06 00:43:42;;;;;;;16.83;3.25;;;;;;;9.89;88.71;99366.72;5030737;28;20045;-42
2022/11/06 00:46:10;;;;;;;15.57;3.95;;;;;;;9.90;88.75;99373.03;5036559;28;20124;-42
2022/11/06 00:48:38;;;;;;;16.92;2.80;;;;;;;9.87;88.92;99352.47;5023787;28;20050;-43
2022/11/06 00:51:12;;;;;;;14.50;3.03;;;;;;;9.85;89.26;99352.03;5027265;28;20045;-43
2022/11/06 00:53:39;;;;;;;11.15;2.20;;;;;;;9.83;89.45;99346.06;5021116;28;20123;-43
2022/11/06 00:56:08;;;;;;;14.00;2.20;;;;;;;9.80;89.62;99350.38;5023808;28;20054;-43
2022/11/06 00:58:36;;;;;;;19.70;3.38;;;;;;;9.79;89.78;99337.72;5020570;28;20449;-44
2022/11/06 01:01:08;;;;;;;14.93;2.47;;;;;;;9.79;89.98;99339.72;5024200;28;20403;-42
2022/11/06 01:03:36;;;;;;;13.93;2.20;;;;;;;9.79;90.13;99334.19;5031000;28;20045;-44
2022/11/06 01:06:14;;;;;;;15.98;3.22;;;;;;;9.79;90.33;99323.13;5019985;28;20373;-42
2022/11/06 01:08:42;;;;;;;15.80;3.30;;;;;;;9.78;90.63;99322.34;5025055;28;20054;-42
2022/11/06 01:11:19;;;;;;;11.25;2.53;;;;;;;9.79;90.77;99323.13;5030208;28;20068;-42
2022/11/06 01:13:49;;;;;;;11.18;2.45;;;;;;;9.78;90.79;99307.72;5030110;28;20392;-42
2022/11/06 01:16:17;;;;;;;7.15;1.60;;;;;;;9.81;90.98;99312.50;5028833;28;20078;-47
2022/11/06 01:18:44;;;;;;;12.18;2.10;;;;;;;9.84;91.04;99292.41;5029757;28;20056;-43
2022/11/06 01:21:17;;;;;;;15.85;3.00;;;;;;;9.86;91.03;99287.28;5005704;28;20045;-42
2022/11/06 01:23:44;;;;;;;11.90;2.00;;;;;;;9.86;90.91;99280.97;5029450;28;20140;-43
2022/11/06 01:26:13;;;;;;;12.88;2.72;;;;;;;9.84;90.93;99275.00;5028980;28;20045;-43
2022/11/06 01:28:40;;;;;;;16.58;2.92;;;;;;;9.81;91.02;99276.56;5030015;28;20052;-46
2022/11/06 01:31:10;;;;;;;12.98;3.13;;;;;;;9.76;90.95;99274.13;5029502;28;20502;-43
2022/11/06 01:33:38;;;;;;;7.50;1.55;;;;;;;9.73;91.02;99280.41;5029786;28;20042;-42
2022/11/06 01:36:05;;;;;;;10.95;3.08;;;;;;;9.70;91.03;99270.91;5028362;28;20048;-45
2022/11/06 01:38:31;;;;;;;14.95;1.75;;;;;;;9.66;91.05;99266.50;5026610;28;20217;-41
2022/11/06 01:40:58;;;;;;;12.38;2.15;;;;;;;9.64;91.16;99255.00;5011370;28;20034;-42
2022/11/06 01:43:42;;;;;;;9.50;1.92;;;;;;;9.59;91.11;99258.09;5028725;28;20045;-42
2022/11/06 01:46:09;;;;;;;13.43;2.38;;;;;;;9.57;91.11;99249.41;5024757;28;20387;-44
2022/11/06 01:48:39;;;;;;;9.73;1.83;;;;;;;9.58;91.33;99234.44;5024453;28;20103;-42
2022/11/06 01:51:07;;;;;;;9.60;1.75;;;;;;;9.59;91.25;99241.53;5024299;28;20046;-42
2022/11/06 01:53:35;;;;;;;8.52;2.30;;;;;;;9.61;91.30;99228.16;5028732;28;20073;-45
2022/11/06 01:56:07;;;;;;;11.50;2.42;;;;;;;9.61;91.18;99217.88;5026060;28;20046;-44
2022/11/06 01:58:35;;;;;;;14.02;2.00;;;;;;;9.62;91.16;99216.72;5022608;28;20045;-49
2022/11/06 02:01:02;;;;;;;13.07;2.03;;;;;;;9.61;91.36;99206.06;5023040;28;20511;-48
2022/11/06 02:03:29;;;;;;;14.10;1.52;;;;;;;9.59;91.21;99208.38;5027016;28;20053;-42
2022/11/06 02:05:57;;;;;;;15.85;2.65;;;;;;;9.54;91.17;99215.03;5027778;28;20041;-45
2022/11/06 02:08:24;;;;;;;12.85;3.75;;;;;;;9.51;91.42;99206.69;5021391;28;20483;-43
2022/11/06 02:10:52;;;;;;;8.20;1.95;;;;;;;9.48;91.56;99210.19;5029504;28;20839;-41
2022/11/06 02:13:24;;;;;;;11.77;1.90;;;;;;;9.46;91.63;99209.78;5028637;28;20057;-42
2022/11/06 02:15:54;;;;;;;;;;;;;;;9.46;91.76;99194.00;5016037;28;20041;-42
2022/11/06 02:18:35;;;;;;;7.88;1.40;;;;;;;9.46;91.78;99195.97;5027079;28;19925;-43
2022/11/06 02:21:19;;;;;;;12.48;1.75;;;;;;;9.51;91.92;99195.63;5016240;28;20049;-42
2022/11/06 02:23:54;;;;;;;2.83;1.35;;;;;;;9.55;91.95;99189.00;5029154;28;20048;-42
2022/11/06 02:26:46;;;;;;;14.38;1.70;;;;;;;9.62;92.04;99174.47;5028007;28;20048;-42
2022/11/06 02:29:47;;;;;;;9.15;1.50;;;;;;;9.69;91.87;99166.25;5011164;28;20415;-42
2022/11/06 02:32:22;;;;;;;8.38;1.77;;;;;;;9.78;91.81;99175.06;5028772;28;20146;-42
2022/11/06 02:34:52;;;;;;;9.05;2.40;;;;;;;9.85;91.74;99152.25;5028739;28;20096;-45
2022/11/06 02:37:34;;;;;;;5.20;1.33;;;;;;;9.91;91.42;99151.50;5024991;28;20045;-42
2022/11/06 02:40:05;;;;;;;6.32;1.63;;;;;;;9.98;91.29;99154.31;5027900;28;20042;-43
2022/11/06 02:42:37;;;;;;;4.55;1.30;;;;;;;10.02;91.29;99127.53;5022834;28;20046;-43
2022/11/06 02:45:08;;;;;;;11.40;1.30;;;;;;;10.07;91.03;99129.94;5027237;28;20057;-43
2022/11/06 02:47:37;;;;;;;13.38;1.65;;;;;;;10.09;91.08;99124.00;5026872;28;20046;-46
2022/11/06 02:50:10;;;;;;;7.97;1.40;;;;;;;10.13;91.06;99117.41;5027440;28;20045;-42
2022/11/06 02:52:41;;;;;;;3.13;0.90;;;;;;;10.18;91.13;99105.97;5029668;28;20049;-43
2022/11/06 02:55:14;;;;;;;5.47;1.52;;;;;;;10.21;90.88;99088.63;5030828;28;20033;-44
2022/11/06 02:57:47;;;;;;;7.78;1.52;;;;;;;10.23;90.94;99100.09;5031522;28;20046;-42
2022/11/06 03:03:00;;;;;;;11.15;2.38;;;;;;;10.27;90.97;99100.91;4915186;23;20073;-43
2022/11/06 03:05:32;;;;;;;7.80;1.25;;;;;;;10.29;90.80;99101.34;4972920;28;20047;-42
2022/11/06 03:08:08;;;;;;;;;;;;;;;10.29;90.92;99093.03;4960530;28;20105;-41
2022/11/06 03:11:04;;;;;;;6.22;1.58;;;;;;;10.32;90.98;99095.03;4975580;28;19961;-42
2022/11/06 03:13:46;;;;;;;10.95;1.50;;;;;;;10.36;90.90;99093.09;4971840;28;20253;-44
2022/11/06 03:16:25;;;;;;;5.90;1.58;;;;;;;10.37;90.88;99091.13;4963035;28;20047;-44
2022/11/06 03:19:06;;;;;;;7.05;1.58;;;;;;;10.39;90.99;99095.09;4969065;28;20050;-50
2022/11/06 03:21:42;;;;;;;7.33;1.47;;;;;;;10.43;90.90;99074.97;4973288;28;20582;-45
2022/11/06 03:24:15;;;;;;;12.07;1.48;;;;;;;10.46;91.08;99068.66;4972316;28;20284;-43
2022/11/06 03:26:49;;;;;;;12.00;1.90;;;;;;;10.47;91.03;99059.16;4973201;28;20126;-48
2022/11/06 03:29:32;;;;;;;11.60;1.90;;;;;;;10.48;90.97;99071.81;4972806;28;20501;-42
2022/11/06 03:32:31;;;;;;;9.98;1.77;;;;;;;10.49;91.13;99051.25;4972581;28;20089;-49
2022/11/06 03:35:05;;;;;;;10.70;1.90;;;;;;;10.48;91.28;99050.50;4962969;28;20046;-43
2022/11/06 03:37:40;;;;;;;9.40;1.95;;;;;;;10.46;91.10;99047.28;4969828;28;20055;-42
2022/11/06 03:40:12;;;;;;;7.15;1.50;;;;;;;10.44;91.42;99043.31;4973309;28;20053;-42
2022/11/06 03:42:40;;;;;;;18.17;2.47;;;;;;;10.42;91.61;99038.19;4966130;28;20117;-42
2022/11/06 03:45:13;;;;;;;11.77;2.15;;;;;;;10.39;91.65;99028.69;4969022;28;20302;-43
2022/11/06 03:47:45;;;;;;;11.65;2.60;;;;;;;10.38;91.69;99032.63;4968565;28;20051;-42
2022/11/06 03:50:21;;;;;;;12.23;2.72;;;;;;;10.36;92.00;99040.53;4970085;28;20141;-43
2022/11/06 03:53:04;;;;;;;13.85;2.10;;;;;;;10.36;92.13;99032.22;4963810;28;20058;-44
2022/11/06 03:55:33;;;;;;;;;;;;;;;10.35;92.32;99022.31;4971533;28;20066;-43
2022/11/06 03:58:07;;;;;;;12.52;2.53;;;;;;;10.35;92.29;99024.31;4969720;28;19929;-42
2022/11/06 04:00:37;;;;;;;11.07;1.65;;;;;;;10.35;92.35;99027.09;4967377;28;20418;-43
2022/11/06 04:03:18;;;;;;;8.68;1.92;;;;;;;10.35;92.39;99030.63;4968925;28;20066;-43
2022/11/06 04:05:52;;;;;;;11.50;1.73;;;;;;;10.36;92.61;99023.94;4969688;28;20098;-42
2022/11/06 04:14:01;;;;;;;12.40;2.55;;;;;;;10.40;93.04;99015.66;4968220;28;20054;-44
2022/11/06 04:16:41;;;;;;;11.68;3.17;;;;;;;10.42;93.08;99009.72;4970094;28;20050;-42
2022/11/06 04:19:17;;;;;;;8.10;1.55;;;;;;;10.42;93.18;99007.75;4971646;28;20459;-42
2022/11/06 04:22:08;;;;;;;7.32;1.13;;;;;;;10.46;93.20;99007.78;4965713;28;20062;-44
2022/11/06 04:27:28;;;;;;;9.50;1.55;;;;;;;10.46;93.31;98997.50;4968053;28;20596;-42
2022/11/06 04:30:04;;;;;;;6.63;1.38;;;;;;;10.49;93.28;98995.94;4967835;28;20801;-42
2022/11/06 04:32:45;;;;;;;15.05;3.05;;;;;;;10.51;93.33;98976.97;4969857;28;20049;-42
2022/11/06 04:35:21;;;;;;;12.63;2.45;;;;;;;10.53;93.40;98985.69;4962460;28;20054;-42
2022/11/06 04:37:47;;;;;;;3.72;0.85;;;;;;;10.54;93.19;98976.22;4968176;28;20059;-42
2022/11/06 04:40:22;;;;;;;5.45;1.02;;;;;;;10.54;93.14;98974.22;4969151;28;20445;-42
2022/11/06 04:43:05;;;;;;;7.60;1.65;;;;;;;10.53;93.18;98969.88;4969003;28;20053;-48
2022/11/06 04:45:38;;;;;;;4.80;1.05;;;;;;;10.50;93.19;98965.13;4962995;28;20070;-42
2022/11/06 04:48:06;;;;;;;4.82;2.42;;;;;;;10.48;92.97;98956.41;4971896;28;20039;-42
2022/11/06 04:50:41;;;;;;;3.65;0.63;;;;;;;10.47;93.12;98973.38;4968663;28;20059;-43
2022/11/06 04:53:09;;;;;;;4.30;0.80;;;;;;;10.47;93.18;98970.63;4969252;28;20046;-42
2022/11/06 04:55:47;;;;;;;0.98;0.60;;;;;;;10.48;93.24;98972.22;4969507;28;20058;-43
2022/11/06 04:58:14;;;;;;;2.30;0.55;;;;;;;10.49;92.98;98968.25;4969429;28;20096;-42
2022/11/06 05:00:45;;;;;;;1.95;0.40;;;;;;;10.49;93.06;98969.06;4961797;28;20097;-43
2022/11/06 05:03:13;;;;;;;1.02;0.38;;;;;;;10.51;92.75;98961.16;4969015;28;20858;-43
2022/11/06 05:05:41;;;;;;;2.85;0.55;;;;;;;10.52;92.93;98959.97;4971628;28;20733;-43
2022/11/06 05:08:18;;;;;;;5.10;1.90;;;;;;;10.53;92.93;98947.75;4971559;28;20241;-43
2022/11/06 05:10:45;;;;;;;1.33;0.50;;;;;;;10.50;92.64;98944.94;4960951;28;20055;-41
2022/11/06 05:13:13;;;;;;;4.68;0.85;;;;;;;10.46;92.62;98946.94;4970718;28;20453;-42
2022/11/06 05:15:41;;;;;;;7.90;0.90;;;;;;;10.40;92.70;98936.19;4971324;28;20041;-43
2022/11/06 05:18:08;;;;;;;7.97;0.90;;;;;;;10.39;92.75;98936.59;4969680;28;20395;-42
2022/11/06 05:20:34;;;;;;;4.10;1.10;;;;;;;10.36;92.79;98932.63;4969808;28;20431;-42
2022/11/06 05:23:01;;;;;;;5.60;0.60;;;;;;;10.34;92.79;98926.72;4970485;28;20400;-43
2022/11/06 05:25:34;;;;;;;7.93;0.90;;;;;;;10.34;92.84;98914.84;4971032;28;20046;-42
2022/11/06 05:28:04;;;;;;;5.25;0.80;;;;;;;10.29;92.78;98927.09;4970844;28;20031;-49
2022/11/06 05:30:32;;;;;;;3.10;0.80;;;;;;;10.27;92.76;98923.13;4969239;28;20059;-43
2022/11/06 05:32:58;;;;;;;2.00;0.80;;;;;;;10.23;92.79;98912.03;4966733;28;20046;-42
2022/11/06 05:35:25;;;;;;;2.33;0.80;;;;;;;10.22;93.14;98906.88;4969256;28;20051;-42
2022/11/06 05:38:02;;;;;;;6.00;1.00;;;;;;;10.21;93.06;98892.28;4969366;28;20047;-42
2022/11/06 05:40:29;;;;;;;5.13;1.45;;;;;;;10.20;93.13;98879.59;4967554;28;20047;-42
2022/11/06 05:42:56;;;;;;;4.50;0.77;;;;;;;10.19;93.05;98883.53;4970642;28;20051;-42
2022/11/06 05:45:22;;;;;;;5.18;0.90;;;;;;;10.18;93.16;98868.16;4966934;28;20448;-43
2022/11/06 05:47:49;;;;;;;5.63;0.57;;;;;;;10.17;93.25;98874.84;4973072;28;20081;-42
2022/11/06 05:50:16;;;;;;;7.82;0.90;;;;;;;10.17;93.13;98863.00;4970090;28;20053;-45
2022/11/06 05:52:42;;;;;;;10.68;0.73;;;;;;;10.15;93.20;98871.69;4956554;28;20047;-42
2022/11/06 05:55:09;;;;;;;8.52;1.60;;;;;;;10.14;93.22;98867.31;4970709;28;20385;-42
2022/11/06 05:57:41;;;;;;;7.22;1.02;;;;;;;10.11;93.02;98887.41;4970068;28;20046;-42
2022/11/06 06:00:10;;;;;;;6.00;1.33;;;;;;;10.07;93.01;98858.97;4969999;28;20046;-42
2022/11/06 06:02:37;;;;;;;10.23;1.20;;;;;;;10.06;93.15;98862.91;4970641;28;20069;-42
2022/11/06 06:05:05;;;;;;;3.05;0.60;;;;;;;10.03;93.11;98860.94;4970439;28;20089;-42
2022/11/06 06:07:32;;;;;;;3.45;0.55;;;;;;;10.03;93.08;98860.94;4970423;28;20067;-43
2022/11/06 06:09:58;;;;;;;3.92;0.73;;;;;;;10.05;92.94;98849.47;4966558;28;20401;-43
2022/11/06 06:12:25;;;;;;;3.08;0.90;;;;;;;10.04;93.00;98850.66;4970317;28;20532;-41
2022/11/06 06:14:52;;;;;;;9.05;1.42;;;;;;;10.04;92.92;98840.41;4970323;28;20050;-49
2022/11/06 06:17:19;;;;;;;4.85;0.70;;;;;;;10.05;92.73;98843.97;4970331;28;20039;-41
2022/11/06 06:19:47;;;;;;;5.20;1.00;;;;;;;10.04;92.60;98848.69;4970336;28;20079;-42
2022/11/06 06:22:13;;;;;;;12.25;2.78;;;;;;;10.05;92.71;98844.75;4969106;28;20043;-43
2022/11/06 06:24:40;;;;;;;5.13;1.30;;;;;;;10.05;92.54;98842.00;4969316;28;20580;-42
2022/11/06 06:27:08;;;;;;;10.75;2.35;;;;;;;10.04;92.35;98834.88;4966015;28;20047;-43
2022/11/06 06:29:34;;;;;;;3.38;1.00;;;;;;;10.03;92.33;98836.06;4969669;28;20509;-42
2022/11/06 06:32:03;;;;;;;6.40;1.02;;;;;;;10.01;92.30;98832.88;4968026;28;20138;-45
2022/11/06 06:34:30;;;;;;;6.43;1.15;;;;;;;10.01;92.28;98826.53;4970004;28;20049;-42
2022/11/06 06:36:56;;;;;;;7.88;1.08;;;;;;;10.01;92.23;98819.03;4970435;28;20047;-43
2022/11/06 06:39:23;;;;;;;7.28;1.55;;;;;;;10.01;92.20;98819.03;4969846;28;20055;-43
2022/11/06 06:41:50;;;;;;;9.55;1.00;;;;;;;10.01;92.07;98813.53;4966702;28;20289;-46
2022/11/06 06:44:16;;;;;;;9.23;1.63;;;;;;;9.99;92.02;98818.66;4964303;28;20106;-43
2022/11/06 06:46:43;;;;;;;8.82;1.40;;;;;;;9.99;91.90;98817.84;4961935;28;20587;-43
2022/11/06 06:49:10;;;;;;;8.45;1.65;;;;;;;9.99;91.97;98817.84;4964568;28;20070;-42
2022/11/06 06:51:37;;;;;;;5.95;1.10;;;;;;;9.99;91.74;98812.31;4965386;28;20146;-42
2022/11/06 06:54:04;;;;;;;8.15;1.27;;;;;;;9.97;91.80;98804.44;4965572;28;20043;-42
2022/11/06 06:56:30;;;;;;;2.95;1.25;;;;;;;9.97;91.70;98812.72;4966221;28;20042;-43
2022/11/06 06:58:57;;;;;;;4.88;1.15;;;;;;;9.95;91.76;98801.28;4955908;28;20043;-43
2022/11/06 07:01:24;;;;;;;8.85;2.40;;;;;;;9.94;91.68;98794.16;4960078;28;20137;-44
2022/11/06 07:03:50;;;;;;;6.82;1.90;;;;;;;9.95;91.55;98790.22;4961329;28;20051;-42
2022/11/06 07:06:18;;;;;;;13.68;2.15;;;;;;;9.94;91.41;98791.38;4963841;28;20060;-42
2022/11/06 07:08:45;;;;;;;7.22;2.10;;;;;;;9.93;91.39;98791.78;4965077;28;20042;-42
2022/11/06 07:11:12;;;;;;;9.18;1.10;;;;;;;9.89;91.27;98780.69;4965210;28;20113;-43
2022/11/06 07:13:39;;;;;;;13.80;2.83;;;;;;;9.86;91.30;98778.72;4965242;28;21002;-44
2022/11/06 07:16:08;;;;;;;9.10;1.70;;;;;;;9.82;91.22;98781.44;4962291;28;20475;-42
2022/11/06 07:18:36;;;;;;;10.52;1.52;;;;;;;9.77;91.21;98787.34;4963200;28;20059;-48
2022/11/06 07:21:04;;;;;;;9.20;1.50;;;;;;;9.74;91.54;98779.81;4964849;28;20051;-42
2022/11/06 07:23:31;;;;;;;28.45;4.18;;;;;;;9.72;91.37;98792.44;4963933;28;20401;-47
2022/11/06 07:25:57;;;;;;;10.00;1.60;;;;;;;9.71;91.46;98783.38;4965100;28;20397;-42
2022/11/06 07:28:24;;;;;;;8.45;1.40;;;;;;;9.70;91.39;98783.75;4965872;28;20050;-41
2022/11/06 07:30:51;;;;;;;8.65;2.47;;;;;;;9.68;91.31;98769.53;4960094;28;20515;-45
2022/11/06 07:33:17;;;;;;;13.43;2.80;;;;;;;9.66;91.48;98771.91;4962427;28;20383;-42
2022/11/06 07:35:44;;;;;;;9.10;2.22;;;;;;;9.65;91.45;98775.84;4964177;28;20087;-42
2022/11/06 07:38:11;;;;;;;15.60;3.75;;;;;;;9.63;91.50;98779.00;4970162;28;20043;-42
2022/11/06 07:40:38;;;;;;;12.30;2.03;;;;;;;9.64;91.62;98779.78;4968798;28;20054;-42
2022/11/06 07:43:08;;;;;;;10.88;2.22;;;;;;;9.64;91.59;98768.72;4969674;28;20054;-42
2022/11/06 07:45:36;;;;;;;18.88;5.03;;;;;;;9.67;91.51;98773.47;4966223;28;20050;-42
2022/11/06 07:48:03;;;;;;;8.60;1.60;;;;;;;9.68;91.60;98780.59;4969925;28;20038;-42
2022/11/06 07:50:31;;;;;;;15.55;2.97;;;;;;;9.68;91.37;98777.84;4965723;28;20042;-44
2022/11/06 07:53:00;;;;;;;10.70;1.50;;;;;;;9.68;91.29;98775.88;4967453;28;20378;-42
2022/11/06 07:55:27;;;;;;;8.13;1.88;;;;;;;9.67;91.37;98756.91;4970085;28;20046;-45
2022/11/06 07:57:54;;;;;;;10.32;1.83;;;;;;;9.67;91.41;98777.03;4965302;28;20046;-42
2022/11/06 08:00:21;;;;;;;5.90;1.60;;;;;;;9.68;91.40;98780.59;4966163;28;20049;-42
2022/11/06 08:02:52;;;;;;;9.60;2.50;;;;;;;9.73;91.30;98766.41;4968724;28;20070;-43
2022/11/06 08:05:19;;;;;;;10.13;3.38;;;;;;;9.76;91.14;98773.94;4965979;28;20497;-47
2022/11/06 08:07:46;;;;;;;11.65;2.78;;;;;;;9.77;91.20;98778.25;4967196;28;21308;-42
2022/11/06 08:10:13;;;;;;;8.77;3.65;;;;;;;9.80;91.10;98777.50;4966694;28;20097;-42
2022/11/06 08:12:39;;;;;;;17.33;2.42;;;;;;;9.84;91.05;98763.69;4972466;28;20059;-43
2022/11/06 08:15:06;;;;;;;14.63;1.55;;;;;;;9.86;90.84;98778.72;4972490;28;20390;-42
2022/11/06 08:17:33;;;;;;;6.75;2.08;;;;;;;9.88;90.99;98764.50;4968348;28;20505;-42
2022/11/06 08:20:00;;;;;;;10.88;1.80;;;;;;;9.88;90.71;98757.00;4972779;28;20058;-45
2022/11/06 08:22:27;;;;;;;5.20;1.45;;;;;;;9.90;90.83;98759.38;4970559;28;20489;-42
2022/11/06 08:24:54;;;;;;;14.98;3.20;;;;;;;9.91;90.94;98756.22;4964173;28;20059;-43
2022/11/06 08:27:20;;;;;;;10.35;1.83;;;;;;;9.93;90.86;98761.38;4968509;28;20050;-42
2022/11/06 08:29:47;;;;;;;10.82;2.30;;;;;;;9.94;90.73;98752.69;4971988;28;20049;-42
2022/11/06 08:32:14;;;;;;;9.93;2.15;;;;;;;9.96;90.82;98747.56;4969632;28;20054;-45
2022/11/06 08:34:41;;;;;;;14.43;2.55;;;;;;;9.98;90.83;98756.25;4971106;28;20130;-42
2022/11/06 08:37:09;;;;;;;6.43;1.60;;;;;;;9.99;90.62;98757.84;4971430;28;20551;-45
2022/11/06 08:39:36;;;;;;;5.53;1.38;;;;;;;10.02;90.61;98751.53;4970914;28;20073;-46
2022/11/06 08:42:04;;;;;;;15.10;2.08;;;;;;;10.04;90.36;98754.69;4963188;28;20055;-42
2022/11/06 08:44:31;;;;;;;5.28;1.00;;;;;;;10.09;90.53;98748.78;4967831;28;20046;-42
2022/11/06 08:46:57;;;;;;;14.35;1.70;;;;;;;10.16;90.32;98740.56;4968702;28;20053;-42
2022/11/06 08:49:24;;;;;;;11.35;3.05;;;;;;;10.22;90.28;98743.69;4970320;28;20043;-42
2022/11/06 08:51:52;;;;;;;7.88;1.85;;;;;;;10.28;90.23;98745.72;4971706;28;20490;-46
2022/11/06 08:54:19;;;;;;;9.00;2.35;;;;;;;10.34;89.84;98746.13;4970362;28;20046;-44
2022/11/06 08:56:46;;;;;;;10.20;1.45;;;;;;;10.38;89.76;98744.94;4969964;28;20074;-44
2022/11/06 08:59:13;;;;;;;12.35;1.77;;;;;;;10.43;89.57;98756.81;4961447;28;20043;-42
2022/11/06 09:01:39;;;;;;;6.35;1.20;;;;;;;10.46;89.45;98750.50;4970514;28;20054;-43
2022/11/06 09:04:06;;;;;;;10.07;1.58;;;;;;;10.46;89.18;98748.50;4965674;28;20043;-43
2022/11/06 09:06:33;;;;;;;11.52;3.08;;;;;;;10.48;89.26;98748.13;4968884;28;20051;-43
2022/11/06 09:09:00;;;;;;;6.75;1.50;;;;;;;10.49;89.09;98752.47;4964216;28;20082;-45
2022/11/06 09:11:27;;;;;;;8.13;2.40;;;;;;;10.49;88.88;98746.91;4967722;28;20054;-41
2022/11/06 09:13:54;;;;;;;9.15;1.73;;;;;;;10.51;88.93;98748.13;4971292;28;20121;-42
2022/11/06 09:16:20;;;;;;;19.58;4.75;;;;;;;10.53;88.80;98750.50;4968928;28;20047;-42
2022/11/06 09:18:49;;;;;;;9.70;1.58;;;;;;;10.52;88.74;98740.59;4967041;28;20157;-50
2022/11/06 09:21:16;;;;;;;13.00;1.65;;;;;;;10.53;88.37;98736.66;4971397;28;20452;-43
2022/11/06 09:23:44;;;;;;;9.70;2.15;;;;;;;10.53;88.43;98737.47;4969182;28;20449;-42
2022/11/06 09:26:11;;;;;;;10.13;1.48;;;;;;;10.54;88.15;98729.97;4967991;28;20477;-43
2022/11/06 09:28:38;;;;;;;9.05;2.00;;;;;;;10.55;88.13;98726.00;4968685;28;20137;-43
2022/11/06 09:31:05;;;;;;;7.95;2.35;;;;;;;10.55;87.63;98729.56;4967273;28;20039;-43
2022/11/06 09:33:31;;;;;;;16.70;2.20;;;;;;;10.56;87.85;98724.81;4964567;28;20054;-44
2022/11/06 09:35:58;;;;;;;12.05;1.95;;;;;;;10.54;87.46;98727.97;4964635;28;20054;-43
2022/11/06 09:38:25;;;;;;;14.75;2.30;;;;;;;10.54;87.24;98718.91;4965058;28;20057;-41
2022/11/06 09:40:54;;;;;;;12.63;2.80;;;;;;;10.51;87.18;98734.28;4965122;28;20053;-43
2022/11/06 09:43:32;;;;;;;9.27;2.17;;;;;;;10.49;87.09;98719.25;4970202;28;20161;-41
2022/11/06 09:46:30;;;;;;;9.88;1.40;;;;;;;10.46;87.05;98720.06;4970432;28;20565;-44
2022/11/06 09:49:24;;;;;;;9.38;1.80;;;;;;;10.45;86.84;98718.47;4963183;28;20043;-45
2022/11/06 09:52:07;;;;;;;9.48;2.95;;;;;;;10.43;86.99;98718.09;4958435;28;20050;-41
2022/11/06 09:54:39;;;;;;;23.00;3.60;;;;;;;10.43;86.94;98709.78;4969916;28;20047;-47
2022/11/06 09:57:18;;;;;;;8.27;1.70;;;;;;;10.44;86.86;98705.81;4965257;28;20053;-41
2022/11/06 09:59:46;;;;;;;13.23;2.35;;;;;;;10.46;86.73;98704.25;4958066;28;20035;-45
2022/11/06 10:02:41;;;;;;;12.18;2.53;;;;;;;10.49;86.58;98703.44;4957050;28;20047;-44
2022/11/06 10:05:30;;;;;;;15.43;3.05;;;;;;;10.51;86.55;98700.31;4962832;28;20806;-42
2022/11/06 10:08:20;;;;;;;21.25;4.68;;;;;;;10.54;86.49;98688.47;4965416;28;20051;-42
2022/11/06 10:11:14;;;;;;;11.05;2.08;;;;;;;10.55;86.42;98690.03;4957526;28;20050;-41
2022/11/06 10:13:40;;;;;;;7.00;2.15;;;;;;;10.57;86.83;98682.09;4970516;28;20051;-43
2022/11/06 10:16:35;;;;;;;9.10;2.67;;;;;;;10.62;86.85;98690.00;4969951;28;20113;-44
2022/11/06 10:19:04;;;;;;;11.35;2.00;;;;;;;10.66;86.70;98685.28;4967414;28;20046;-45
2022/11/06 10:21:47;;;;;;;11.30;2.67;;;;;;;10.70;86.54;98680.53;4968924;28;20055;-42
2022/11/06 10:24:40;;;;;;;15.18;3.42;;;;;;;10.72;86.46;98678.19;4962555;28;20686;-41
2022/11/06 10:27:22;;;;;;;9.45;2.40;;;;;;;10.73;86.40;98679.75;4968611;28;20047;-41
2022/11/06 10:30:09;;;;;;;14.68;2.20;;;;;;;10.77;86.41;98683.31;4959292;28;20517;-42
2022/11/06 10:33:00;;;;;;;8.77;1.70;;;;;;;10.81;86.42;98681.31;4970812;28;20400;-41
2022/11/06 10:35:42;;;;;;;12.55;1.83;;;;;;;10.82;86.12;98680.94;4966449;28;20048;-43
2022/11/06 10:38:13;;;;;;;11.03;3.13;;;;;;;10.83;86.04;98678.94;4968950;28;20496;-44
2022/11/06 10:40:47;;;;;;;14.80;2.28;;;;;;;10.87;86.19;98679.75;4967158;28;20292;-41
2022/11/06 10:43:39;;;;;;;8.07;1.75;;;;;;;10.94;85.92;98674.19;4965333;28;20392;-41
2022/11/06 10:46:32;;;;;;;13.80;1.90;;;;;;;10.95;85.68;98667.47;4965345;28;20050;-42
2022/11/06 10:49:02;;;;;;;7.75;2.50;;;;;;;10.93;85.52;98672.63;4956957;28;20046;-42
2022/11/06 10:51:58;;;;;;;7.68;2.38;;;;;;;10.96;85.24;98688.44;4968647;28;20055;-42
2022/11/06 10:54:34;;;;;;;10.07;2.20;;;;;;;11.02;85.10;98673.00;4956134;28;20449;-42
2022/11/06 10:57:27;;;;;;;10.65;3.55;;;;;;;11.11;85.06;98676.16;4953784;28;21260;-41
2022/11/06 10:59:54;;;;;;;8.70;1.60;;;;;;;11.18;85.04;98676.13;4958242;28;20102;-48
2022/11/06 11:02:29;;;;;;;11.90;2.15;;;;;;;11.26;84.63;98672.16;4959488;28;20408;-43
2022/11/06 11:04:56;;;;;;;12.63;1.88;;;;;;;11.35;84.52;98667.00;4956565;28;20456;-42
2022/11/06 11:07:29;;;;;;;6.57;1.85;;;;;;;11.44;84.02;98658.22;4954883;28;20047;-43
2022/11/06 11:09:56;;;;;;;12.40;2.63;;;;;;;11.48;83.65;98662.59;4958555;28;20047;-42
2022/11/06 11:12:27;;;;;;;12.38;2.47;;;;;;;11.52;83.37;98659.78;4953729;28;20051;-49
2022/11/06 11:15:24;;;;;;;14.70;2.25;;;;;;;11.50;83.25;98654.66;4959966;28;20104;-42
2022/11/06 11:18:31;;;;;;;5.75;1.60;;;;;;;11.49;82.86;98641.97;4944867;28;20051;-43
2022/11/06 11:21:05;;;;;;;8.70;2.00;;;;;;;11.47;82.89;98646.34;4939175;28;20117;-43
2022/11/06 11:23:32;;;;;;;11.27;3.83;;;;;;;11.45;83.30;98641.22;4971166;28;20050;-42
2022/11/06 11:26:24;;;;;;;15.13;2.03;;;;;;;11.46;82.73;98640.00;4972379;28;20145;-44
2022/11/06 11:28:56;;;;;;;10.85;2.10;;;;;;;11.48;82.92;98639.63;4970827;28;20497;-41
2022/11/06 11:31:30;;;;;;;16.13;2.20;;;;;;;11.49;82.75;98633.66;4968107;28;20055;-42
2022/11/06 11:34:00;;;;;;;12.98;4.00;;;;;;;11.53;82.61;98631.69;4970251;28;20055;-44
2022/11/06 11:36:53;;;;;;;13.23;3.15;;;;;;;11.58;82.63;98631.25;4971499;28;20137;-41
2022/11/06 11:39:24;;;;;;;10.38;2.35;;;;;;;11.64;82.81;98617.78;4972089;28;20054;-42
2022/11/06 14:11:18;;;;;;;10.38;2.63;;;;;;;13.40;73.65;98470.97;5042625;28;20397;-47
2022/11/06 14:14:05;;;;;;;6.90;1.23;;;;;;;13.25;73.49;98458.50;5046227;28;20561;-42
2022/11/06 14:16:37;;;;;;;7.25;1.52;;;;;;;13.14;73.75;98463.41;5046565;28;20053;-44
2022/11/06 14:19:12;;;;;;;12.52;2.67;;;;;;;13.22;73.43;98473.22;5045618;28;20049;-43
2022/11/06 14:21:38;;;;;;;6.05;1.58;;;;;;;13.32;73.22;98461.97;5039649;28;20072;-45
2022/11/06 14:24:05;;;;;;;10.13;2.03;;;;;;;13.34;72.76;98464.34;5026226;28;20518;-43
2022/11/06 14:26:38;;;;;;;9.38;1.90;;;;;;;13.25;72.74;98452.94;5035806;28;20069;-44
2022/11/06 14:29:23;;;;;;;8.57;1.83;;;;;;;13.12;72.52;98460.28;5045722;28;20061;-42
2022/11/06 14:32:00;;;;;;;4.28;1.60;;;;;;;13.02;72.61;98455.63;5045454;28;20045;-42
2022/11/06 14:34:28;;;;;;;13.68;2.40;;;;;;;12.91;72.67;98454.97;5045574;28;20109;-46
2022/11/06 14:36:55;;;;;;;9.75;1.50;;;;;;;12.81;72.76;98446.34;5045835;28;20041;-42
2022/11/06 14:39:50;;;;;;;10.88;1.65;;;;;;;12.76;72.68;98441.25;5033684;28;20041;-44